createdAt,value
2023-05-13T00:00:59.742Z,1501.00
2023-05-13T00:01:59.858Z,1510.00
2023-05-13T00:02:59.936Z,1480.00
2023-05-13T00:03:59.930Z,1505.00
2023-05-13T00:04:59.991Z,1493.00
2023-05-13T00:06:00.120Z,1504.00
2023-05-13T00:07:00.138Z,1466.00
2023-05-13T00:08:00.185Z,1488.00
2023-05-13T00:09:00.265Z,1492.00
2023-05-13T00:10:00.314Z,1502.00
2023-05-13T00:11:00.378Z,1500.00
2023-05-13T00:12:00.437Z,1495.00
2023-05-13T00:13:00.510Z,1483.00
2023-05-13T00:14:00.560Z,1486.00
2023-05-13T00:15:00.600Z,1486.00
2023-05-13T00:16:00.651Z,1473.00
2023-05-13T00:17:00.633Z,1488.00
2023-05-13T00:18:00.707Z,1504.00
2023-05-13T00:19:00.689Z,1484.00
2023-05-13T00:20:00.669Z,1479.00
2023-05-13T00:21:00.716Z,1492.00
2023-05-13T00:22:00.706Z,1499.00
2023-05-13T00:23:00.749Z,1483.00
2023-05-13T00:24:00.780Z,1495.00
2023-05-13T00:25:00.822Z,1502.00
2023-05-13T00:26:00.874Z,1486.00
2023-05-13T00:27:00.946Z,1485.00
2023-05-13T00:28:01.020Z,1496.00
2023-05-13T00:29:01.072Z,1490.00
2023-05-13T00:30:01.105Z,1527.00
2023-05-13T00:31:01.177Z,1518.00
2023-05-13T00:32:01.190Z,1524.00
2023-05-13T00:33:01.268Z,1504.00
2023-05-13T00:34:01.278Z,1493.00
2023-05-13T00:35:01.350Z,1494.00
2023-05-13T00:36:01.410Z,1495.00
2023-05-13T00:37:01.489Z,1496.00
2023-05-13T00:38:01.523Z,1475.00
2023-05-13T00:39:01.582Z,1472.00
2023-05-13T00:40:01.626Z,1479.00
2023-05-13T00:41:01.619Z,1474.00
2023-05-13T00:42:01.692Z,1458.00
2023-05-13T00:43:01.761Z,1453.00
2023-05-13T00:44:01.802Z,1452.00
2023-05-13T00:45:01.867Z,1419.00
2023-05-13T00:46:02.007Z,1414.00
2023-05-13T00:47:01.982Z,1410.00
2023-05-13T00:48:02.179Z,1412.00
2023-05-13T00:49:02.120Z,1435.00
2023-05-13T00:50:02.195Z,1413.00
2023-05-13T00:51:02.230Z,1419.00
2023-05-13T00:52:02.309Z,1436.00
2023-05-13T00:53:02.351Z,1440.00
2023-05-13T00:54:02.376Z,1449.00
2023-05-13T00:55:02.404Z,1438.00
2023-05-13T00:56:02.413Z,1448.00
2023-05-13T00:57:02.434Z,1451.00
2023-05-13T00:58:02.477Z,1415.00
2023-05-13T00:59:02.464Z,1419.00
2023-05-13T01:00:02.491Z,1419.00
2023-05-13T01:01:02.545Z,1423.00
2023-05-13T01:02:02.597Z,1424.00
2023-05-13T01:03:02.688Z,1435.00
2023-05-13T01:04:02.590Z,1422.00
2023-05-13T01:05:02.610Z,1425.00
2023-05-13T01:06:02.621Z,1419.00
2023-05-13T01:07:02.691Z,1432.00
2023-05-13T01:08:02.710Z,1430.00
2023-05-13T01:09:02.779Z,1452.00
2023-05-13T01:10:02.825Z,1452.00
2023-05-13T01:11:02.873Z,1448.00
2023-05-13T01:12:02.948Z,1451.00
2023-05-13T01:13:03.009Z,1454.00
2023-05-13T01:14:03.127Z,1442.00
2023-05-13T01:15:03.129Z,1431.00
2023-05-13T01:16:03.118Z,1439.00
2023-05-13T01:17:03.214Z,1427.00
2023-05-13T01:18:03.225Z,1421.00
2023-05-13T01:19:03.265Z,1413.00
2023-05-13T01:20:03.271Z,1407.00
2023-05-13T01:21:03.309Z,1415.00
2023-05-13T01:22:03.363Z,1431.00
2023-05-13T01:23:03.433Z,1417.00
2023-05-13T01:24:03.565Z,1428.00
2023-05-13T01:25:03.523Z,1410.00
2023-05-13T01:26:03.596Z,1394.00
2023-05-13T01:27:03.651Z,1389.00
2023-05-13T01:28:03.728Z,1396.00
2023-05-13T01:29:03.794Z,1393.00
2023-05-13T01:30:03.866Z,1385.00
2023-05-13T01:31:03.957Z,1415.00
2023-05-13T01:32:03.966Z,1381.00
2023-05-13T01:33:04.076Z,1382.00
2023-05-13T01:34:04.023Z,1395.00
2023-05-13T01:35:04.050Z,1414.00
2023-05-13T01:36:04.083Z,1411.00
2023-05-13T01:37:04.093Z,1420.00
2023-05-13T01:38:04.133Z,1419.00
2023-05-13T01:39:04.160Z,1402.00
2023-05-13T01:40:12.115Z,1424.00
2023-05-13T01:41:05.205Z,1425.00
2023-05-13T01:42:04.186Z,1425.00
2023-05-13T01:43:04.182Z,1436.00
2023-05-13T01:44:04.166Z,1425.00
2023-05-13T01:45:04.179Z,1424.00
2023-05-13T01:46:04.174Z,1441.00
2023-05-13T01:47:04.158Z,1424.00
2023-05-13T01:48:04.217Z,1435.00
2023-05-13T01:49:04.161Z,1437.00
2023-05-13T01:50:04.131Z,1451.00
2023-05-13T01:51:04.139Z,1428.00
2023-05-13T01:52:04.118Z,1408.00
2023-05-13T01:53:04.109Z,1418.00
2023-05-13T01:54:04.116Z,1427.00
2023-05-13T01:55:04.096Z,1429.00
2023-05-13T01:56:04.086Z,1426.00
2023-05-13T01:57:04.169Z,1450.00
2023-05-13T01:58:04.189Z,1429.00
2023-05-13T01:59:04.249Z,1444.00
2023-05-13T02:00:04.310Z,1426.00
2023-05-13T02:01:04.370Z,1420.00
2023-05-13T02:02:04.460Z,1424.00
2023-05-13T02:03:04.533Z,1424.00
2023-05-13T02:04:04.628Z,1421.00
2023-05-13T02:05:04.574Z,1406.00
2023-05-13T02:06:04.612Z,1390.00
2023-05-13T02:07:04.673Z,1400.00
2023-05-13T02:08:04.742Z,1397.00
2023-05-13T02:09:04.752Z,1397.00
2023-05-13T02:10:04.921Z,1387.00
2023-05-13T02:11:04.816Z,1384.00
2023-05-13T02:12:04.861Z,1397.00
2023-05-13T02:13:04.869Z,1381.00
2023-05-13T02:14:04.900Z,1382.00
2023-05-13T02:15:04.948Z,1363.00
2023-05-13T02:16:05.042Z,1376.00
2023-05-13T02:17:05.012Z,1388.00
2023-05-13T02:18:05.078Z,1359.00
2023-05-13T02:19:05.189Z,1379.00
2023-05-13T02:20:05.126Z,1380.00
2023-05-13T02:21:05.138Z,1405.00
2023-05-13T02:22:05.182Z,1386.00
2023-05-13T02:23:05.204Z,1404.00
2023-05-13T02:24:05.252Z,1398.00
2023-05-13T02:25:05.259Z,1410.00
2023-05-13T02:26:05.284Z,1405.00
2023-05-13T02:27:05.312Z,1426.00
2023-05-13T02:28:05.362Z,1424.00
2023-05-13T02:29:05.388Z,1413.00
2023-05-13T02:30:05.429Z,1405.00
2023-05-13T02:31:05.452Z,1428.00
2023-05-13T02:32:05.511Z,1426.00
2023-05-13T02:33:05.542Z,1410.00
2023-05-13T02:34:05.545Z,1412.00
2023-05-13T02:35:05.572Z,1410.00
2023-05-13T02:36:05.633Z,1415.00
2023-05-13T02:37:05.670Z,1420.00
2023-05-13T02:38:05.675Z,1421.00
2023-05-13T02:39:05.725Z,1414.00
2023-05-13T02:40:05.755Z,1446.00
2023-05-13T02:41:05.743Z,1441.00
2023-05-13T02:42:05.755Z,1433.00
2023-05-13T02:43:05.775Z,1444.00
2023-05-13T02:44:05.795Z,1434.00
2023-05-13T02:45:05.780Z,1437.00
2023-05-13T02:46:05.823Z,1434.00
2023-05-13T02:47:05.789Z,1453.00
2023-05-13T02:48:05.847Z,1472.00
2023-05-13T02:49:05.796Z,1465.00
2023-05-13T02:50:05.780Z,1463.00
2023-05-13T02:51:05.829Z,1478.00
2023-05-13T02:52:05.822Z,1496.00
2023-05-13T02:53:05.840Z,1462.00
2023-05-13T02:54:05.827Z,1476.00
2023-05-13T02:55:05.848Z,1482.00
2023-05-13T02:56:05.795Z,1467.00
2023-05-13T02:57:05.832Z,1468.00
2023-05-13T02:58:05.805Z,1456.00
2023-05-13T02:59:05.797Z,1463.00
2023-05-13T03:00:05.789Z,1451.00
2023-05-13T03:01:05.817Z,1447.00
2023-05-13T03:02:05.818Z,1466.00
2023-05-13T03:03:05.865Z,1456.00
2023-05-13T03:04:05.794Z,1445.00
2023-05-13T03:05:05.838Z,1451.00
2023-05-13T03:06:05.805Z,1459.00
2023-05-13T03:07:05.813Z,1476.00
2023-05-13T03:08:05.870Z,1452.00
2023-05-13T03:09:05.800Z,1467.00
2023-05-13T03:10:05.825Z,1453.00
2023-05-13T03:11:05.809Z,1465.00
2023-05-13T03:12:05.795Z,1468.00
2023-05-13T03:13:05.787Z,1469.00
2023-05-13T03:14:05.833Z,1484.00
2023-05-13T03:15:05.862Z,1479.00
2023-05-13T03:16:05.917Z,1486.00
2023-05-13T03:17:05.850Z,1471.00
2023-05-13T03:18:05.869Z,1464.00
2023-05-13T03:19:05.963Z,1464.00
2023-05-13T03:20:05.869Z,1477.00
2023-05-13T03:21:05.865Z,1469.00
2023-05-13T03:22:05.868Z,1465.00
2023-05-13T03:23:05.860Z,1481.00
2023-05-13T03:24:05.847Z,1479.00
2023-05-13T03:25:05.831Z,1473.00
2023-05-13T03:26:05.853Z,1492.00
2023-05-13T03:27:05.819Z,1501.00
2023-05-13T03:28:05.815Z,1500.00
2023-05-13T03:29:05.832Z,1482.00
2023-05-13T03:30:05.811Z,1491.00
2023-05-13T03:31:05.990Z,1499.00
2023-05-13T03:32:05.799Z,1489.00
2023-05-13T03:33:05.817Z,1500.00
2023-05-13T03:34:05.798Z,1487.00
2023-05-13T03:35:05.817Z,1478.00
2023-05-13T03:36:05.808Z,1487.00
2023-05-13T03:37:05.798Z,1501.00
2023-05-13T03:38:05.831Z,1499.00
2023-05-13T03:39:05.839Z,1482.00
2023-05-13T03:40:05.854Z,1475.00
2023-05-13T03:41:05.880Z,1464.00
2023-05-13T03:42:05.931Z,1469.00
2023-05-13T03:43:05.984Z,1462.00
2023-05-13T03:44:06.016Z,1463.00
2023-05-13T03:45:06.055Z,1424.00
2023-05-13T03:46:06.103Z,1465.00
2023-05-13T03:47:06.215Z,1451.00
2023-05-13T03:48:06.200Z,1445.00
2023-05-13T03:49:06.134Z,1423.00
2023-05-13T03:50:06.110Z,1438.00
2023-05-13T03:51:06.138Z,1440.00
2023-05-13T03:52:06.150Z,1431.00
2023-05-13T03:53:06.152Z,1428.00
2023-05-13T03:54:06.146Z,1407.00
2023-05-13T03:55:06.141Z,1403.00
2023-05-13T03:56:06.165Z,1397.00
2023-05-13T03:57:06.206Z,1397.00
2023-05-13T03:58:06.186Z,1390.00
2023-05-13T03:59:06.190Z,1375.00
2023-05-13T04:00:06.188Z,1380.00
2023-05-13T04:01:06.192Z,1365.00
2023-05-13T04:02:06.199Z,1360.00
2023-05-13T04:03:06.217Z,1361.00
2023-05-13T04:04:06.180Z,1367.00
2023-05-13T04:05:06.186Z,1374.00
2023-05-13T04:06:06.177Z,1364.00
2023-05-13T04:07:06.188Z,1363.00
2023-05-13T04:08:06.155Z,1359.00
2023-05-13T04:09:06.169Z,1393.00
2023-05-13T04:10:06.155Z,1406.00
2023-05-13T04:11:06.162Z,1405.00
2023-05-13T04:12:06.173Z,1402.00
2023-05-13T04:13:06.203Z,1413.00
2023-05-13T04:14:06.210Z,1418.00
2023-05-13T04:15:06.202Z,1416.00
2023-05-13T04:16:06.214Z,1438.00
2023-05-13T04:17:06.330Z,1445.00
2023-05-13T04:18:06.249Z,1446.00
2023-05-13T04:19:06.277Z,1461.00
2023-05-13T04:20:06.225Z,1448.00
2023-05-13T04:21:06.217Z,1462.00
2023-05-13T04:22:06.220Z,1467.00
2023-05-13T04:23:06.223Z,1472.00
2023-05-13T04:24:06.241Z,1477.00
2023-05-13T04:25:06.235Z,1479.00
2023-05-13T04:26:06.247Z,1481.00
2023-05-13T04:27:06.361Z,1481.00
2023-05-13T04:28:06.368Z,1459.00
2023-05-13T04:29:06.405Z,1467.00
2023-05-13T04:30:06.454Z,1463.00
2023-05-13T04:31:06.486Z,1450.00
2023-05-13T04:32:06.609Z,1458.00
2023-05-13T04:33:06.712Z,1454.00
2023-05-13T04:34:06.630Z,1446.00
2023-05-13T04:35:06.671Z,1440.00
2023-05-13T04:36:06.716Z,1437.00
2023-05-13T04:37:06.767Z,1439.00
2023-05-13T04:38:06.783Z,1438.00
2023-05-13T04:39:06.781Z,1424.00
2023-05-13T04:40:06.793Z,1425.00
2023-05-13T04:41:06.820Z,1400.00
2023-05-13T04:42:06.826Z,1395.00
2023-05-13T04:43:06.811Z,1387.00
2023-05-13T04:44:06.830Z,1399.00
2023-05-13T04:45:06.804Z,1397.00
2023-05-13T04:46:06.829Z,1381.00
2023-05-13T04:47:06.862Z,1371.00
2023-05-13T04:48:06.886Z,1381.00
2023-05-13T04:49:06.834Z,1366.00
2023-05-13T04:50:06.802Z,1340.00
2023-05-13T04:51:06.803Z,1335.00
2023-05-13T04:52:06.783Z,1342.00
2023-05-13T04:53:06.801Z,1332.00
2023-05-13T04:54:06.794Z,1358.00
2023-05-13T04:55:06.776Z,1323.00
2023-05-13T04:56:06.773Z,1337.00
2023-05-13T04:57:06.818Z,1357.00
2023-05-13T04:58:06.859Z,1336.00
2023-05-13T04:59:06.903Z,1345.00
2023-05-13T05:00:06.925Z,1344.00
2023-05-13T05:01:06.985Z,1336.00
2023-05-13T05:02:07.079Z,1317.00
2023-05-13T05:03:07.081Z,1327.00
2023-05-13T05:04:07.177Z,1323.00
2023-05-13T05:05:07.128Z,1322.00
2023-05-13T05:06:07.178Z,1320.00
2023-05-13T05:07:07.209Z,1332.00
2023-05-13T05:08:07.227Z,1317.00
2023-05-13T05:09:07.281Z,1315.00
2023-05-13T05:10:07.312Z,1302.00
2023-05-13T05:11:07.365Z,1307.00
2023-05-13T05:12:07.369Z,1319.00
2023-05-13T05:13:07.415Z,1315.00
2023-05-13T05:14:07.477Z,1314.00
2023-05-13T05:15:07.489Z,1295.00
2023-05-13T05:16:07.512Z,1318.00
2023-05-13T05:17:07.594Z,1312.00
2023-05-13T05:18:07.775Z,1320.00
2023-05-13T05:19:07.618Z,1321.00
2023-05-13T05:20:07.638Z,1314.00
2023-05-13T05:21:07.645Z,1323.00
2023-05-13T05:22:07.665Z,1322.00
2023-05-13T05:23:07.710Z,1323.00
2023-05-13T05:24:07.740Z,1334.00
2023-05-13T05:25:07.760Z,1346.00
2023-05-13T05:26:11.672Z,1345.00
2023-05-13T05:27:07.800Z,1346.00
2023-05-13T05:28:07.795Z,1346.00
2023-05-13T05:29:07.769Z,1338.00
2023-05-13T05:30:07.761Z,1337.00
2023-05-13T05:31:07.781Z,1330.00
2023-05-13T05:32:07.748Z,1355.00
2023-05-13T05:33:07.807Z,1343.00
2023-05-13T05:34:07.754Z,1338.00
2023-05-13T05:35:07.748Z,1335.00
2023-05-13T05:36:07.717Z,1333.00
2023-05-13T05:37:07.737Z,1348.00
2023-05-13T05:38:07.740Z,1341.00
2023-05-13T05:39:07.720Z,1339.00
2023-05-13T05:40:07.681Z,1325.00
2023-05-13T05:41:07.695Z,1328.00
2023-05-13T05:42:07.703Z,1339.00
2023-05-13T05:43:07.688Z,1358.00
2023-05-13T05:44:07.673Z,1328.00
2023-05-13T05:45:07.663Z,1337.00
2023-05-13T05:46:07.700Z,1315.00
2023-05-13T05:47:07.656Z,1312.00
2023-05-13T05:48:07.742Z,1319.00
2023-05-13T05:49:07.647Z,1332.00
2023-05-13T05:50:07.665Z,1326.00
2023-05-13T05:51:07.693Z,1326.00
2023-05-13T05:52:07.704Z,1328.00
2023-05-13T05:53:07.734Z,1317.00
2023-05-13T05:54:07.786Z,1335.00
2023-05-13T05:55:07.843Z,1304.00
2023-05-13T05:56:07.895Z,1335.00
2023-05-13T05:57:07.918Z,1331.00
2023-05-13T05:58:07.946Z,1316.00
2023-05-13T05:59:08.021Z,1335.00
2023-05-13T06:00:08.045Z,1345.00
2023-05-13T06:01:08.044Z,1313.00
2023-05-13T06:02:08.109Z,1332.00
2023-05-13T06:03:08.214Z,1316.00
2023-05-13T06:04:08.180Z,1324.00
2023-05-13T06:05:08.132Z,1325.00
2023-05-13T06:06:08.155Z,1316.00
2023-05-13T06:07:08.256Z,1322.00
2023-05-13T06:08:08.201Z,1315.00
2023-05-13T06:09:08.232Z,1334.00
2023-05-13T06:10:08.441Z,1291.00
2023-05-13T06:11:08.277Z,1304.00
2023-05-13T06:12:08.285Z,1294.00
2023-05-13T06:13:08.307Z,1300.00
2023-05-13T06:14:08.370Z,1302.00
2023-05-13T06:15:08.395Z,1318.00
2023-05-13T06:16:08.476Z,1323.00
2023-05-13T06:17:08.507Z,1327.00
2023-05-13T06:18:08.611Z,1312.00
2023-05-13T06:19:08.627Z,1328.00
2023-05-13T06:20:08.687Z,1325.00
2023-05-13T06:21:08.721Z,1317.00
2023-05-13T06:22:08.807Z,1315.00
2023-05-13T06:23:08.835Z,1315.00
2023-05-13T06:24:08.907Z,1314.00
2023-05-13T06:25:09.095Z,1312.00
2023-05-13T06:26:09.026Z,1307.00
2023-05-13T06:27:09.107Z,1303.00
2023-05-13T06:28:09.168Z,1310.00
2023-05-13T06:29:09.191Z,1306.00
2023-05-13T06:30:09.194Z,1320.00
2023-05-13T06:31:09.278Z,1300.00
2023-05-13T06:32:09.232Z,1325.00
2023-05-13T06:33:09.279Z,1320.00
2023-05-13T06:34:09.280Z,1349.00
2023-05-13T06:35:09.294Z,1349.00
2023-05-13T06:36:09.355Z,1317.00
2023-05-13T06:37:09.394Z,1295.00
2023-05-13T06:38:09.458Z,1299.00
2023-05-13T06:39:09.525Z,1306.00
2023-05-13T06:40:09.594Z,1304.00
2023-05-13T06:41:09.663Z,1292.00
2023-05-13T06:42:09.912Z,1278.00
2023-05-13T06:43:09.754Z,1287.00
2023-05-13T06:44:09.838Z,1285.00
2023-05-13T06:45:09.874Z,1277.00
2023-05-13T06:46:09.962Z,1260.00
2023-05-13T06:47:10.023Z,1296.00
2023-05-13T06:48:10.069Z,1304.00
2023-05-13T06:49:10.077Z,1290.00
2023-05-13T06:50:10.133Z,1297.00
2023-05-13T06:51:10.198Z,1280.00
2023-05-13T06:52:10.242Z,1278.00
2023-05-13T06:53:10.310Z,1273.00
2023-05-13T06:54:10.362Z,1278.00
2023-05-13T06:55:10.399Z,1271.00
2023-05-13T06:56:10.412Z,1284.00
2023-05-13T06:57:10.404Z,1275.00
2023-05-13T06:58:10.423Z,1262.00
2023-05-13T06:59:10.423Z,1265.00
2023-05-13T07:00:10.477Z,1281.00
2023-05-13T07:01:10.596Z,1267.00
2023-05-13T07:02:10.626Z,1253.00
2023-05-13T07:03:10.663Z,1287.00
2023-05-13T07:04:10.813Z,1258.00
2023-05-13T07:05:11.292Z,1256.00
2023-05-13T07:06:10.845Z,1255.00
2023-05-13T07:07:10.902Z,1267.00
2023-05-13T07:08:10.984Z,1260.00
2023-05-13T07:09:11.051Z,1249.00
2023-05-13T07:10:11.108Z,1261.00
2023-05-13T07:11:11.164Z,1264.00
2023-05-13T07:12:11.228Z,1268.00
2023-05-13T07:13:11.265Z,1287.00
2023-05-13T07:14:11.361Z,1289.00
2023-05-13T07:15:11.408Z,1301.00
2023-05-13T07:16:11.455Z,1286.00
2023-05-13T07:17:11.497Z,1280.00
2023-05-13T07:18:11.599Z,1285.00
2023-05-13T07:19:11.649Z,1290.00
2023-05-13T07:20:11.647Z,1273.00
2023-05-13T07:21:11.688Z,1270.00
2023-05-13T07:22:11.754Z,1286.00
2023-05-13T07:23:11.833Z,1270.00
2023-05-13T07:24:11.880Z,1271.00
2023-05-13T07:25:11.916Z,1280.00
2023-05-13T07:26:11.987Z,1291.00
2023-05-13T07:27:12.060Z,1299.00
2023-05-13T07:28:12.092Z,1272.00
2023-05-13T07:29:12.090Z,1284.00
2023-05-13T07:30:12.101Z,1279.00
2023-05-13T07:31:12.156Z,1275.00
2023-05-13T07:32:12.160Z,1302.00
2023-05-13T07:33:12.276Z,1286.00
2023-05-13T07:34:12.344Z,1275.00
2023-05-13T07:35:12.353Z,1286.00
2023-05-13T07:36:12.396Z,1275.00
2023-05-13T07:37:12.467Z,1280.00
2023-05-13T07:38:12.530Z,1281.00
2023-05-13T07:39:12.601Z,1279.00
2023-05-13T07:40:12.652Z,1286.00
2023-05-13T07:41:12.694Z,1292.00
2023-05-13T07:42:12.743Z,1280.00
2023-05-13T07:43:12.789Z,1284.00
2023-05-13T07:44:12.854Z,1298.00
2023-05-13T07:45:12.913Z,1300.00
2023-05-13T07:46:12.927Z,1276.00
2023-05-13T07:47:13.762Z,1264.00
2023-05-13T07:48:12.989Z,1243.00
2023-05-13T07:49:12.926Z,1217.00
2023-05-13T07:50:12.942Z,1222.00
2023-05-13T07:51:12.922Z,1251.00
2023-05-13T07:52:12.950Z,1254.00
2023-05-13T07:53:13.007Z,1209.00
2023-05-13T07:54:13.087Z,1222.00
2023-05-13T07:55:13.192Z,1218.00
2023-05-13T07:56:13.181Z,1226.00
2023-05-13T07:57:13.242Z,1187.00
2023-05-13T07:58:13.295Z,1207.00
2023-05-13T07:59:13.371Z,1200.00
2023-05-13T08:00:13.408Z,1198.00
2023-05-13T08:01:13.441Z,1176.00
2023-05-13T08:02:13.496Z,1176.00
2023-05-13T08:03:13.595Z,1189.00
2023-05-13T08:04:13.634Z,1175.00
2023-05-13T08:05:13.536Z,1150.00
2023-05-13T08:06:13.539Z,1177.00
2023-05-13T08:07:13.517Z,1139.00
2023-05-13T08:08:13.512Z,1173.00
2023-05-13T08:09:13.541Z,1155.00
2023-05-13T08:10:13.527Z,1170.00
2023-05-13T08:11:13.525Z,1182.00
2023-05-13T08:12:13.574Z,1169.00
2023-05-13T08:13:13.650Z,1170.00
2023-05-13T08:14:13.717Z,1158.00
2023-05-13T08:15:13.767Z,1137.00
2023-05-13T08:16:13.842Z,1147.00
2023-05-13T08:17:13.871Z,1171.00
2023-05-13T08:18:13.935Z,1179.00
2023-05-13T08:19:14.079Z,1166.00
2023-05-13T08:20:14.052Z,1168.00
2023-05-13T08:21:14.070Z,1167.00
2023-05-13T08:22:14.140Z,1191.00
2023-05-13T08:23:14.191Z,1187.00
2023-05-13T08:24:14.238Z,1204.00
2023-05-13T08:25:14.287Z,1194.00
2023-05-13T08:26:14.346Z,1189.00
2023-05-13T08:27:14.414Z,1174.00
2023-05-13T08:28:14.457Z,1187.00
2023-05-13T08:29:14.518Z,1188.00
2023-05-13T08:30:14.565Z,1187.00
2023-05-13T08:31:14.656Z,1189.00
2023-05-13T08:32:14.693Z,1158.00
2023-05-13T08:33:14.669Z,1173.00
2023-05-13T08:34:14.728Z,1175.00
2023-05-13T08:35:14.756Z,1155.00
2023-05-13T08:36:14.808Z,1191.00
2023-05-13T08:37:14.876Z,1177.00
2023-05-13T08:38:14.897Z,1182.00
2023-05-13T08:39:14.956Z,1164.00
2023-05-13T08:40:15.010Z,1172.00
2023-05-13T08:41:15.066Z,1113.00
2023-05-13T08:42:15.091Z,1105.00
2023-05-13T08:43:15.096Z,1075.00
2023-05-13T08:44:15.144Z,1081.00
2023-05-13T08:45:15.176Z,1073.00
2023-05-13T08:46:15.291Z,1085.00
2023-05-13T08:47:15.243Z,1101.00
2023-05-13T08:48:15.332Z,1060.00
2023-05-13T08:50:22.126Z,500.00
2023-05-13T08:51:22.077Z,500.00
2023-05-13T08:52:22.072Z,500.00
2023-05-13T08:53:22.077Z,500.00
2023-05-13T08:54:23.965Z,500.00
2023-05-13T08:55:22.259Z,500.00
2023-05-13T08:56:22.065Z,500.00
2023-05-13T08:57:22.040Z,500.00
2023-05-13T08:58:22.030Z,500.00
2023-05-13T08:59:22.024Z,500.00
2023-05-13T09:00:22.047Z,505.00
2023-05-13T09:01:22.102Z,502.00
2023-05-13T09:02:22.007Z,500.00
2023-05-13T09:03:22.006Z,502.00
2023-05-13T09:04:22.014Z,509.00
2023-05-13T09:05:22.375Z,502.00
2023-05-13T09:06:22.009Z,500.00
2023-05-13T09:07:21.986Z,500.00
2023-05-13T09:08:21.980Z,515.00
2023-05-13T09:09:21.957Z,507.00
2023-05-13T09:10:21.997Z,519.00
2023-05-13T09:11:21.980Z,510.00
2023-05-13T09:12:21.955Z,521.00
2023-05-13T09:13:21.950Z,521.00
2023-05-13T09:14:21.936Z,515.00
2023-05-13T09:15:22.065Z,519.00
2023-05-13T09:16:21.976Z,521.00
2023-05-13T09:17:21.964Z,516.00
2023-05-13T09:18:22.010Z,529.00
2023-05-13T09:19:21.957Z,529.00
2023-05-13T09:20:21.883Z,530.00
2023-05-13T09:21:21.872Z,541.00
2023-05-13T09:22:21.893Z,536.00
2023-05-13T09:23:21.881Z,527.00
2023-05-13T09:24:21.864Z,507.00
2023-05-13T09:25:22.064Z,509.00
2023-05-13T09:26:21.871Z,514.00
2023-05-13T09:27:21.866Z,516.00
2023-05-13T09:28:21.876Z,514.00
2023-05-13T09:29:21.886Z,500.00
2023-05-13T09:30:21.931Z,503.00
2023-05-13T09:31:21.983Z,500.00
2023-05-13T09:32:21.978Z,498.00
2023-05-13T09:33:22.015Z,504.00
2023-05-13T09:34:22.009Z,521.00
2023-05-13T09:35:22.183Z,522.00
2023-05-13T09:36:22.042Z,532.00
2023-05-13T09:37:22.080Z,527.00
2023-05-13T09:38:22.132Z,504.00
2023-05-13T09:39:22.137Z,509.00
2023-05-13T09:40:22.393Z,512.00
2023-05-13T09:41:22.202Z,500.00
2023-05-13T09:42:22.219Z,505.00
2023-05-13T09:43:22.244Z,528.00
2023-05-13T09:44:22.252Z,538.00
2023-05-13T09:45:22.490Z,533.00
2023-05-13T09:46:22.333Z,541.00
2023-05-13T09:47:22.343Z,549.00
2023-05-13T09:48:22.371Z,537.00
2023-05-13T09:49:22.401Z,544.00
2023-05-13T09:50:22.623Z,542.00
2023-05-13T09:51:22.414Z,530.00
2023-05-13T09:52:22.475Z,537.00
2023-05-13T09:53:22.520Z,542.00
2023-05-13T09:54:22.583Z,534.00
2023-05-13T09:55:22.558Z,531.00
2023-05-13T09:56:22.549Z,540.00
2023-05-13T09:57:22.655Z,541.00
2023-05-13T09:58:22.740Z,537.00
2023-05-13T09:59:22.741Z,519.00
2023-05-13T10:00:32.157Z,502.00
2023-05-13T10:01:23.676Z,502.00
2023-05-13T10:02:22.689Z,503.00
2023-05-13T10:03:22.733Z,508.00
2023-05-13T10:04:22.759Z,516.00
2023-05-13T10:05:22.614Z,527.00
2023-05-13T10:06:22.606Z,531.00
2023-05-13T10:07:22.619Z,506.00
2023-05-13T10:08:22.611Z,505.00
2023-05-13T10:09:22.594Z,516.00
2023-05-13T10:10:22.807Z,512.00
2023-05-13T10:11:22.579Z,516.00
2023-05-13T10:12:22.649Z,499.00
2023-05-13T10:13:22.644Z,510.00
2023-05-13T10:14:22.676Z,509.00
2023-05-13T10:15:22.696Z,507.00
2023-05-13T10:16:22.727Z,510.00
2023-05-13T10:17:22.748Z,507.00
2023-05-13T10:18:22.751Z,505.00
2023-05-13T10:19:22.779Z,500.00
2023-05-13T10:20:23.147Z,500.00
2023-05-13T10:21:22.875Z,521.00
2023-05-13T10:22:22.938Z,514.00
2023-05-13T10:23:23.018Z,498.00
2023-05-13T10:24:23.100Z,500.00
2023-05-13T10:25:23.154Z,520.00
2023-05-13T10:26:23.191Z,516.00
2023-05-13T10:27:23.234Z,515.00
2023-05-13T10:28:23.278Z,519.00
2023-05-13T10:29:23.323Z,500.00
2023-05-13T10:30:23.508Z,500.00
2023-05-13T10:31:23.445Z,500.00
2023-05-13T10:32:23.418Z,501.00
2023-05-13T10:33:23.427Z,508.00
2023-05-13T10:34:23.436Z,506.00
2023-05-13T10:35:23.501Z,517.00
2023-05-13T10:36:23.554Z,524.00
2023-05-13T10:37:23.565Z,518.00
2023-05-13T10:38:23.638Z,500.00
2023-05-13T10:39:23.652Z,505.00
2023-05-13T10:40:23.956Z,516.00
2023-05-13T10:41:23.738Z,517.00
2023-05-13T10:42:23.742Z,517.00
2023-05-13T10:43:23.748Z,522.00
2023-05-13T10:44:23.767Z,515.00
2023-05-13T10:45:23.805Z,519.00
2023-05-13T10:46:23.870Z,502.00
2023-05-13T10:47:23.971Z,500.00
2023-05-13T10:48:24.021Z,495.00
2023-05-13T10:49:23.979Z,524.00
2023-05-13T10:50:24.110Z,522.00
2023-05-13T10:51:24.070Z,522.00
2023-05-13T10:52:24.132Z,509.00
2023-05-13T10:53:24.191Z,520.00
2023-05-13T10:54:24.193Z,511.00
2023-05-13T10:55:24.223Z,505.00
2023-05-13T10:56:24.251Z,527.00
2023-05-13T10:57:24.271Z,541.00
2023-05-13T10:58:24.332Z,534.00
2023-05-13T10:59:24.410Z,511.00
2023-05-13T11:00:24.474Z,531.00
2023-05-13T11:01:24.473Z,553.00
2023-05-13T11:02:24.613Z,556.00
2023-05-13T11:03:26.752Z,574.00
2023-05-13T11:04:24.494Z,581.00
2023-05-13T11:05:24.515Z,579.00
2023-05-13T11:06:24.516Z,564.00
2023-05-13T11:07:24.484Z,539.00
2023-05-13T11:08:24.486Z,541.00
2023-05-13T11:09:24.484Z,545.00
2023-05-13T11:10:24.459Z,558.00
2023-05-13T11:11:24.460Z,530.00
2023-05-13T11:12:24.505Z,540.00
2023-05-13T11:13:24.442Z,543.00
2023-05-13T11:14:24.445Z,527.00
2023-05-13T11:15:24.451Z,539.00
2023-05-13T11:16:24.498Z,569.00
2023-05-13T11:17:24.443Z,560.00
2023-05-13T11:18:24.416Z,544.00
2023-05-13T11:19:24.470Z,540.00
2023-05-13T11:20:24.407Z,540.00
2023-05-13T11:21:24.409Z,541.00
2023-05-13T11:22:24.606Z,549.00
2023-05-13T11:23:24.383Z,541.00
2023-05-13T11:24:24.396Z,532.00
2023-05-13T11:25:24.374Z,535.00
2023-05-13T11:26:24.354Z,527.00
2023-05-13T11:27:24.354Z,515.00
2023-05-13T11:28:24.352Z,522.00
2023-05-13T11:29:24.375Z,521.00
2023-05-13T11:30:24.522Z,507.00
2023-05-13T11:31:24.425Z,501.00
2023-05-13T11:32:24.352Z,524.00
2023-05-13T11:33:24.299Z,526.00
2023-05-13T11:34:24.310Z,518.00
2023-05-13T11:35:24.294Z,520.00
2023-05-13T11:36:24.292Z,521.00
2023-05-13T11:37:24.273Z,508.00
2023-05-13T11:38:24.281Z,529.00
2023-05-13T11:39:24.284Z,537.00
2023-05-13T11:40:24.372Z,501.00
2023-05-13T11:41:24.241Z,508.00
2023-05-13T11:42:24.249Z,517.00
2023-05-13T11:43:24.276Z,504.00
2023-05-13T11:44:24.354Z,527.00
2023-05-13T11:45:24.591Z,536.00
2023-05-13T11:46:24.542Z,540.00
2023-05-13T11:47:24.488Z,512.00
2023-05-13T11:48:24.541Z,508.00
2023-05-13T11:49:24.533Z,500.00
2023-05-13T11:50:24.558Z,502.00
2023-05-13T11:51:24.602Z,502.00
2023-05-13T11:52:24.651Z,506.00
2023-05-13T11:53:24.705Z,506.00
2023-05-13T11:54:24.753Z,500.00
2023-05-13T11:55:24.762Z,508.00
2023-05-13T11:56:24.782Z,517.00
2023-05-13T11:57:24.803Z,507.00
2023-05-13T11:58:24.816Z,504.00
2023-05-13T11:59:24.817Z,500.00
2023-05-13T12:00:24.880Z,518.00
2023-05-13T12:01:24.884Z,506.00
2023-05-13T12:02:25.074Z,500.00
2023-05-13T12:03:25.042Z,496.00
2023-05-13T12:04:24.897Z,511.00
2023-05-13T12:05:25.313Z,516.00
2023-05-13T12:06:25.007Z,530.00
2023-05-13T12:07:25.071Z,515.00
2023-05-13T12:08:25.111Z,542.00
2023-05-13T12:09:25.216Z,526.00
2023-05-13T12:10:25.228Z,539.00
2023-05-13T12:11:25.278Z,528.00
2023-05-13T12:12:25.334Z,536.00
2023-05-13T12:13:25.398Z,516.00
2023-05-13T12:14:27.666Z,508.00